sensor_id;sensor_type;location;lat;lon;timestamp;pressure;altitude;pressure_sealevel;temperature
69785;BMP280;14177;51.520;6.764;2022-08-24T00:01:49;101400.72;;;22.41
69785;BMP280;14177;51.520;6.764;2022-08-24T00:04:16;101388.44;;;22.40
69785;BMP280;14177;51.520;6.764;2022-08-24T00:06:44;101393.84;;;22.39
69785;BMP280;14177;51.520;6.764;2022-08-24T00:09:10;101400.09;;;22.38
69785;BMP280;14177;51.520;6.764;2022-08-24T00:11:37;101388.97;;;22.33
69785;BMP280;14177;51.520;6.764;2022-08-24T00:14:04;101392.78;;;22.29
69785;BMP280;14177;51.520;6.764;2022-08-24T00:16:32;101396.78;;;22.22
69785;BMP280;14177;51.520;6.764;2022-08-24T00:19:01;101398.16;;;22.15
69785;BMP280;14177;51.520;6.764;2022-08-24T00:21:28;101395.94;;;22.09
69785;BMP280;14177;51.520;6.764;2022-08-24T00:23:55;101398.06;;;22.04
69785;BMP280;14177;51.520;6.764;2022-08-24T00:26:22;101399.75;;;22.05
69785;BMP280;14177;51.520;6.764;2022-08-24T00:28:56;101401.22;;;22.09
69785;BMP280;14177;51.520;6.764;2022-08-24T00:31:24;101405.38;;;22.13
69785;BMP280;14177;51.520;6.764;2022-08-24T00:33:52;101403.56;;;22.13
69785;BMP280;14177;51.520;6.764;2022-08-24T00:36:19;101405.38;;;22.13
69785;BMP280;14177;51.520;6.764;2022-08-24T00:38:48;101401.34;;;22.08
69785;BMP280;14177;51.520;6.764;2022-08-24T00:41:16;101409.78;;;22.00
69785;BMP280;14177;51.520;6.764;2022-08-24T00:43:56;101401.66;;;21.91
69785;BMP280;14177;51.520;6.764;2022-08-24T00:46:43;101412.63;;;21.85
69785;BMP280;14177;51.520;6.764;2022-08-24T00:54:43;101408.22;;;21.85
69785;BMP280;14177;51.520;6.764;2022-08-24T00:57:17;101407.34;;;21.85
69785;BMP280;14177;51.520;6.764;2022-08-24T00:59:59;101399.41;;;21.85
69785;BMP280;14177;51.520;6.764;2022-08-24T01:02:32;101405.56;;;21.85
69785;BMP280;14177;51.520;6.764;2022-08-24T01:05:05;101407.47;;;21.83
69785;BMP280;14177;51.520;6.764;2022-08-24T01:07:35;101403.34;;;21.79
69785;BMP280;14177;51.520;6.764;2022-08-24T01:10:13;101402.78;;;21.74
69785;BMP280;14177;51.520;6.764;2022-08-24T01:12:44;101405.09;;;21.66
69785;BMP280;14177;51.520;6.764;2022-08-24T01:15:33;101408.16;;;21.60
69785;BMP280;14177;51.520;6.764;2022-08-24T01:18:02;101403.44;;;21.51
69785;BMP280;14177;51.520;6.764;2022-08-24T01:21:00;101408.19;;;21.46
69785;BMP280;14177;51.520;6.764;2022-08-24T01:23:49;101404.78;;;21.44
69785;BMP280;14177;51.520;6.764;2022-08-24T01:26:27;101403.09;;;21.43
69785;BMP280;14177;51.520;6.764;2022-08-24T01:29:08;101401.50;;;21.41
69785;BMP280;14177;51.520;6.764;2022-08-24T01:31:36;101397.56;;;21.34
69785;BMP280;14177;51.520;6.764;2022-08-24T01:34:04;101398.72;;;21.30
69785;BMP280;14177;51.520;6.764;2022-08-24T01:36:44;101402.72;;;21.23
69785;BMP280;14177;51.520;6.764;2022-08-24T01:39:18;101403.94;;;21.17
69785;BMP280;14177;51.520;6.764;2022-08-24T01:41:48;101406.50;;;21.19
69785;BMP280;14177;51.520;6.764;2022-08-24T01:44:16;101414.31;;;21.20
69785;BMP280;14177;51.520;6.764;2022-08-24T01:46:45;101412.53;;;21.21
69785;BMP280;14177;51.520;6.764;2022-08-24T01:49:14;101411.59;;;21.22
69785;BMP280;14177;51.520;6.764;2022-08-24T01:51:42;101416.94;;;21.20
69785;BMP280;14177;51.520;6.764;2022-08-24T01:54:13;101414.69;;;21.14
69785;BMP280;14177;51.520;6.764;2022-08-24T01:56:41;101409.84;;;21.08
69785;BMP280;14177;51.520;6.764;2022-08-24T01:59:10;101417.00;;;21.06
69785;BMP280;14177;51.520;6.764;2022-08-24T02:01:47;101421.63;;;21.03
69785;BMP280;14177;51.520;6.764;2022-08-24T02:04:14;101415.72;;;20.99
69785;BMP280;14177;51.520;6.764;2022-08-24T02:06:46;101421.75;;;21.01
69785;BMP280;14177;51.520;6.764;2022-08-24T02:09:14;101421.00;;;20.99
69785;BMP280;14177;51.520;6.764;2022-08-24T02:11:42;101421.19;;;20.96
69785;BMP280;14177;51.520;6.764;2022-08-24T02:14:12;101425.81;;;20.93
69785;BMP280;14177;51.520;6.764;2022-08-24T02:16:40;101420.91;;;20.87
69785;BMP280;14177;51.520;6.764;2022-08-24T02:19:07;101422.16;;;20.82
69785;BMP280;14177;51.520;6.764;2022-08-24T02:21:36;101424.00;;;20.80
69785;BMP280;14177;51.520;6.764;2022-08-24T02:24:05;101417.03;;;20.79
69785;BMP280;14177;51.520;6.764;2022-08-24T02:26:33;101424.31;;;20.75
69785;BMP280;14177;51.520;6.764;2022-08-24T02:29:00;101426.09;;;20.75
69785;BMP280;14177;51.520;6.764;2022-08-24T02:31:31;101428.91;;;20.72
69785;BMP280;14177;51.520;6.764;2022-08-24T02:33:59;101431.66;;;20.70
69785;BMP280;14177;51.520;6.764;2022-08-24T02:36:26;101428.34;;;20.67
69785;BMP280;14177;51.520;6.764;2022-08-24T02:38:56;101435.50;;;20.65
69785;BMP280;14177;51.520;6.764;2022-08-24T02:41:27;101424.31;;;20.61
69785;BMP280;14177;51.520;6.764;2022-08-24T02:43:55;101420.91;;;20.59
69785;BMP280;14177;51.520;6.764;2022-08-24T02:46:26;101422.81;;;20.57
69785;BMP280;14177;51.520;6.764;2022-08-24T02:48:55;101431.56;;;20.58
69785;BMP280;14177;51.520;6.764;2022-08-24T02:51:42;101431.75;;;20.55
69785;BMP280;14177;51.520;6.764;2022-08-24T02:54:16;101425.72;;;20.53
69785;BMP280;14177;51.520;6.764;2022-08-24T02:56:47;101426.56;;;20.53
69785;BMP280;14177;51.520;6.764;2022-08-24T02:59:16;101422.31;;;20.51
69785;BMP280;14177;51.520;6.764;2022-08-24T03:01:44;101429.47;;;20.49
69785;BMP280;14177;51.520;6.764;2022-08-24T03:04:12;101422.63;;;20.46
69785;BMP280;14177;51.520;6.764;2022-08-24T03:06:40;101428.91;;;20.44
69785;BMP280;14177;51.520;6.764;2022-08-24T03:09:07;101428.16;;;20.42
69785;BMP280;14177;51.520;6.764;2022-08-24T03:11:34;101423.09;;;20.39
69785;BMP280;14177;51.520;6.764;2022-08-24T03:14:02;101425.75;;;20.39
69785;BMP280;14177;51.520;6.764;2022-08-24T03:16:30;101429.41;;;20.36
69785;BMP280;14177;51.520;6.764;2022-08-24T03:18:58;101424.22;;;20.35
69785;BMP280;14177;51.520;6.764;2022-08-24T03:21:27;101429.50;;;20.35
69785;BMP280;14177;51.520;6.764;2022-08-24T03:23:55;101434.84;;;20.33
69785;BMP280;14177;51.520;6.764;2022-08-24T03:26:22;101435.91;;;20.31
69785;BMP280;14177;51.520;6.764;2022-08-24T03:28:50;101432.59;;;20.27
69785;BMP280;14177;51.520;6.764;2022-08-24T03:31:18;101443.44;;;20.23
69785;BMP280;14177;51.520;6.764;2022-08-24T03:33:47;101438.34;;;20.20
69785;BMP280;14177;51.520;6.764;2022-08-24T03:36:15;101441.91;;;20.19
69785;BMP280;14177;51.520;6.764;2022-08-24T03:38:43;101447.38;;;20.16
69785;BMP280;14177;51.520;6.764;2022-08-24T03:41:10;101438.72;;;20.14
69785;BMP280;14177;51.520;6.764;2022-08-24T03:43:39;101435.31;;;20.12
69785;BMP280;14177;51.520;6.764;2022-08-24T03:46:19;101436.50;;;20.06
69785;BMP280;14177;51.520;6.764;2022-08-24T03:48:48;101436.78;;;20.02
69785;BMP280;14177;51.520;6.764;2022-08-24T03:51:21;101440.47;;;19.99
69785;BMP280;14177;51.520;6.764;2022-08-24T03:53:51;101446.91;;;19.94
69785;BMP280;14177;51.520;6.764;2022-08-24T03:56:21;101439.09;;;19.92
69785;BMP280;14177;51.520;6.764;2022-08-24T03:58:48;101438.06;;;19.95
69785;BMP280;14177;51.520;6.764;2022-08-24T04:01:16;101437.06;;;19.97
69785;BMP280;14177;51.520;6.764;2022-08-24T04:03:46;101437.75;;;20.01
69785;BMP280;14177;51.520;6.764;2022-08-24T04:06:17;101436.78;;;20.02
69785;BMP280;14177;51.520;6.764;2022-08-24T04:08:45;101435.84;;;20.03
69785;BMP280;14177;51.520;6.764;2022-08-24T04:11:16;101443.00;;;20.01
69785;BMP280;14177;51.520;6.764;2022-08-24T04:13:44;101438.06;;;19.95
69785;BMP280;14177;51.520;6.764;2022-08-24T04:16:16;101437.41;;;19.91
69785;BMP280;14177;51.520;6.764;2022-08-24T04:18:45;101432.31;;;19.88
69785;BMP280;14177;51.520;6.764;2022-08-24T04:21:26;101428.91;;;19.86
69785;BMP280;14177;51.520;6.764;2022-08-24T04:23:55;101438.59;;;19.86
69785;BMP280;14177;51.520;6.764;2022-08-24T04:26:27;101438.59;;;19.86
69785;BMP280;14177;51.520;6.764;2022-08-24T04:29:15;101443.13;;;19.84
69785;BMP280;14177;51.520;6.764;2022-08-24T04:31:48;101438.97;;;19.80
69785;BMP280;14177;51.520;6.764;2022-08-24T04:34:16;101451.19;;;19.81
69785;BMP280;14177;51.520;6.764;2022-08-24T04:36:44;101449.50;;;19.80
69785;BMP280;14177;51.520;6.764;2022-08-24T04:39:13;101446.88;;;19.80
69785;BMP280;14177;51.520;6.764;2022-08-24T04:41:59;101444.50;;;19.75
69785;BMP280;14177;51.520;6.764;2022-08-24T04:44:34;101450.03;;;19.71
69785;BMP280;14177;51.520;6.764;2022-08-24T04:47:01;101459.06;;;19.67
69785;BMP280;14177;51.520;6.764;2022-08-24T04:49:29;101449.47;;;19.66
69785;BMP280;14177;51.520;6.764;2022-08-24T04:51:56;101453.78;;;19.67
69785;BMP280;14177;51.520;6.764;2022-08-24T04:54:24;101453.59;;;19.70
69785;BMP280;14177;51.520;6.764;2022-08-24T04:57:03;101463.13;;;19.72
69785;BMP280;14177;51.520;6.764;2022-08-24T04:59:30;101464.72;;;19.75
69785;BMP280;14177;51.520;6.764;2022-08-24T05:01:57;101465.66;;;19.74
69785;BMP280;14177;51.520;6.764;2022-08-24T05:04:24;101466.59;;;19.73
69785;BMP280;14177;51.520;6.764;2022-08-24T05:06:51;101474.53;;;19.73
69785;BMP280;14177;51.520;6.764;2022-08-24T05:09:20;101473.59;;;19.74
69785;BMP280;14177;51.520;6.764;2022-08-24T05:11:47;101470.94;;;19.74
69785;BMP280;14177;51.520;6.764;2022-08-24T05:14:20;101469.19;;;19.74
69785;BMP280;14177;51.520;6.764;2022-08-24T05:16:52;101473.50;;;19.75
69785;BMP280;14177;51.520;6.764;2022-08-24T05:19:21;101483.69;;;19.81
69785;BMP280;14177;51.520;6.764;2022-08-24T05:21:49;101480.03;;;19.84
69785;BMP280;14177;51.520;6.764;2022-08-24T05:24:17;101483.34;;;19.87
69785;BMP280;14177;51.520;6.764;2022-08-24T05:26:45;101489.97;;;19.94
69785;BMP280;14177;51.520;6.764;2022-08-24T05:29:13;101495.00;;;19.99
69785;BMP280;14177;51.520;6.764;2022-08-24T05:31:45;101495.56;;;20.04
69785;BMP280;14177;51.520;6.764;2022-08-24T05:34:14;101495.41;;;20.07
69785;BMP280;14177;51.520;6.764;2022-08-24T05:36:42;101493.34;;;20.12
69785;BMP280;14177;51.520;6.764;2022-08-24T05:39:21;101500.13;;;20.16
69785;BMP280;14177;51.520;6.764;2022-08-24T05:41:53;101490.41;;;20.16
69785;BMP280;14177;51.520;6.764;2022-08-24T05:44:26;101494.69;;;20.19
69785;BMP280;14177;51.520;6.764;2022-08-24T05:46:59;101501.47;;;20.23
69785;BMP280;14177;51.520;6.764;2022-08-24T05:49:27;101497.72;;;20.27
69785;BMP280;14177;51.520;6.764;2022-08-24T05:51:54;101501.69;;;20.34
69785;BMP280;14177;51.520;6.764;2022-08-24T05:54:21;101507.25;;;20.43
69785;BMP280;14177;51.520;6.764;2022-08-24T05:57:00;101494.34;;;20.53
69785;BMP280;14177;51.520;6.764;2022-08-24T05:59:39;101507.91;;;20.61
69785;BMP280;14177;51.520;6.764;2022-08-24T06:02:13;101499.38;;;20.71
69785;BMP280;14177;51.520;6.764;2022-08-24T06:04:41;101500.50;;;20.81
69785;BMP280;14177;51.520;6.764;2022-08-24T06:07:08;101505.22;;;20.90
69785;BMP280;14177;51.520;6.764;2022-08-24T06:09:38;101500.22;;;20.99
69785;BMP280;14177;51.520;6.764;2022-08-24T06:12:07;101498.72;;;21.09
69785;BMP280;14177;51.520;6.764;2022-08-24T06:14:35;101505.84;;;21.21
69785;BMP280;14177;51.520;6.764;2022-08-24T06:17:05;101496.56;;;21.28
69785;BMP280;14177;51.520;6.764;2022-08-24T06:19:34;101499.59;;;21.36
69785;BMP280;14177;51.520;6.764;2022-08-24T06:22:02;101503.34;;;21.46
69785;BMP280;14177;51.520;6.764;2022-08-24T06:24:30;101504.28;;;21.59
69785;BMP280;14177;51.520;6.764;2022-08-24T06:27:17;101506.00;;;21.73
69785;BMP280;14177;51.520;6.764;2022-08-24T06:30:00;101515.91;;;21.83
69785;BMP280;14177;51.520;6.764;2022-08-24T06:32:47;101518.47;;;21.97
69785;BMP280;14177;51.520;6.764;2022-08-24T06:35:48;101517.44;;;22.12
69785;BMP280;14177;51.520;6.764;2022-08-24T06:38:15;101517.69;;;22.21
69785;BMP280;14177;51.520;6.764;2022-08-24T06:40:44;101522.34;;;22.30
69785;BMP280;14177;51.520;6.764;2022-08-24T06:43:12;101521.75;;;22.39
69785;BMP280;14177;51.520;6.764;2022-08-24T06:45:46;101529.06;;;22.48
69785;BMP280;14177;51.520;6.764;2022-08-24T06:48:16;101528.56;;;22.56
69785;BMP280;14177;51.520;6.764;2022-08-24T06:50:44;101526.72;;;22.69
69785;BMP280;14177;51.520;6.764;2022-08-24T06:53:11;101528.31;;;22.84
69785;BMP280;14177;51.520;6.764;2022-08-24T06:55:48;101529.78;;;23.00
69785;BMP280;14177;51.520;6.764;2022-08-24T06:58:16;101533.63;;;23.09
69785;BMP280;14177;51.520;6.764;2022-08-24T07:00:45;101523.66;;;23.25
69785;BMP280;14177;51.520;6.764;2022-08-24T07:03:14;101533.34;;;23.37
69785;BMP280;14177;51.520;6.764;2022-08-24T07:05:56;101525.97;;;23.52
69785;BMP280;14177;51.520;6.764;2022-08-24T07:08:40;101532.81;;;23.67
69785;BMP280;14177;51.520;6.764;2022-08-24T07:11:10;101521.34;;;23.79
69785;BMP280;14177;51.520;6.764;2022-08-24T07:13:37;101518.28;;;23.96
69785;BMP280;14177;51.520;6.764;2022-08-24T07:16:05;101528.22;;;24.16
69785;BMP280;14177;51.520;6.764;2022-08-24T07:18:35;101535.44;;;24.38
69785;BMP280;14177;51.520;6.764;2022-08-24T07:21:04;101533.69;;;24.49
69785;BMP280;14177;51.520;6.764;2022-08-24T07:23:45;101530.94;;;24.72
69785;BMP280;14177;51.520;6.764;2022-08-24T07:26:17;101527.56;;;24.92
69785;BMP280;14177;51.520;6.764;2022-08-24T07:29:17;101525.25;;;25.10
69785;BMP280;14177;51.520;6.764;2022-08-24T07:32:04;101522.47;;;25.33
69785;BMP280;14177;51.520;6.764;2022-08-24T07:34:35;101524.63;;;25.50
69785;BMP280;14177;51.520;6.764;2022-08-24T07:37:04;101529.03;;;25.72
69785;BMP280;14177;51.520;6.764;2022-08-24T07:39:33;101525.63;;;25.92
69785;BMP280;14177;51.520;6.764;2022-08-24T07:42:00;101521.28;;;26.11
69785;BMP280;14177;51.520;6.764;2022-08-24T07:44:48;101525.66;;;26.32
69785;BMP280;14177;51.520;6.764;2022-08-24T07:47:15;101530.63;;;26.57
69785;BMP280;14177;51.520;6.764;2022-08-24T07:50:04;101525.59;;;26.84
69785;BMP280;14177;51.520;6.764;2022-08-24T07:52:31;101537.28;;;27.02
69785;BMP280;14177;51.520;6.764;2022-08-24T07:54:58;101534.03;;;27.19
69785;BMP280;14177;51.520;6.764;2022-08-24T07:57:26;101530.28;;;27.31
69785;BMP280;14177;51.520;6.764;2022-08-24T07:59:53;101538.78;;;27.55
69785;BMP280;14177;51.520;6.764;2022-08-24T08:02:20;101537.44;;;27.79
69785;BMP280;14177;51.520;6.764;2022-08-24T08:04:53;101536.03;;;28.04
69785;BMP280;14177;51.520;6.764;2022-08-24T08:07:21;101534.06;;;28.25
69785;BMP280;14177;51.520;6.764;2022-08-24T08:09:49;101536.72;;;28.44
69785;BMP280;14177;51.520;6.764;2022-08-24T08:12:17;101536.41;;;28.65
69785;BMP280;14177;51.520;6.764;2022-08-24T08:14:53;101531.84;;;28.94
69785;BMP280;14177;51.520;6.764;2022-08-24T08:17:21;101535.25;;;29.14
69785;BMP280;14177;51.520;6.764;2022-08-24T08:19:49;101528.56;;;29.27
69785;BMP280;14177;51.520;6.764;2022-08-24T08:22:17;101534.72;;;29.47
69785;BMP280;14177;51.520;6.764;2022-08-24T08:25:21;101536.81;;;29.70
69785;BMP280;14177;51.520;6.764;2022-08-24T08:27:48;101532.53;;;29.77
69785;BMP280;14177;51.520;6.764;2022-08-24T08:30:16;101541.00;;;29.90
69785;BMP280;14177;51.520;6.764;2022-08-24T08:32:43;101542.50;;;30.19
69785;BMP280;14177;51.520;6.764;2022-08-24T08:35:11;101542.84;;;30.42
69785;BMP280;14177;51.520;6.764;2022-08-24T08:37:39;101536.66;;;30.67
69785;BMP280;14177;51.520;6.764;2022-08-24T08:40:27;101542.91;;;31.01
69785;BMP280;14177;51.520;6.764;2022-08-24T08:43:06;101533.00;;;31.34
69785;BMP280;14177;51.520;6.764;2022-08-24T08:45:59;101536.16;;;31.71
69785;BMP280;14177;51.520;6.764;2022-08-24T08:49:10;101533.53;;;31.95
69785;BMP280;14177;51.520;6.764;2022-08-24T08:52:09;101534.22;;;32.13
69785;BMP280;14177;51.520;6.764;2022-08-24T08:55:15;101536.56;;;32.24
69785;BMP280;14177;51.520;6.764;2022-08-24T09:00:49;101527.47;;;32.73
69785;BMP280;14177;51.520;6.764;2022-08-24T09:03:36;101529.59;;;32.93
69785;BMP280;14177;51.520;6.764;2022-08-24T09:09:40;101534.78;;;33.03
69785;BMP280;14177;51.520;6.764;2022-08-24T09:21:18;101531.72;;;33.22
69785;BMP280;14177;51.520;6.764;2022-08-24T09:31:41;101509.44;;;33.36
69785;BMP280;14177;51.520;6.764;2022-08-24T09:34:45;101521.69;;;33.69
69785;BMP280;14177;51.520;6.764;2022-08-24T09:41:16;101511.72;;;33.47
69785;BMP280;14177;51.520;6.764;2022-08-24T09:53:36;101509.34;;;35.42
69785;BMP280;14177;51.520;6.764;2022-08-24T10:00:36;101511.16;;;35.92
69785;BMP280;14177;51.520;6.764;2022-08-24T10:08:52;101501.00;;;36.15
69785;BMP280;14177;51.520;6.764;2022-08-24T10:15:13;101486.53;;;36.49
69785;BMP280;14177;51.520;6.764;2022-08-24T10:21:20;101483.81;;;36.77
69785;BMP280;14177;51.520;6.764;2022-08-24T10:24:23;101491.75;;;36.51
69785;BMP280;14177;51.520;6.764;2022-08-24T10:44:32;101461.34;;;37.30
69785;BMP280;14177;51.520;6.764;2022-08-24T10:47:34;101462.38;;;37.35
69785;BMP280;14177;51.520;6.764;2022-08-24T10:50:32;101469.19;;;37.05
69785;BMP280;14177;51.520;6.764;2022-08-24T10:53:27;101461.47;;;37.02
69785;BMP280;14177;51.520;6.764;2022-08-24T10:56:16;101457.72;;;37.03
69785;BMP280;14177;51.520;6.764;2022-08-24T10:58:57;101454.63;;;37.13
69785;BMP280;14177;51.520;6.764;2022-08-24T11:01:34;101445.06;;;37.23
69785;BMP280;14177;51.520;6.764;2022-08-24T11:04:13;101456.81;;;37.43
69785;BMP280;14177;51.520;6.764;2022-08-24T11:09:58;101446.91;;;37.16
69785;BMP280;14177;51.520;6.764;2022-08-24T11:17:57;101445.84;;;38.03
69785;BMP280;14177;51.520;6.764;2022-08-24T11:20:39;101447.28;;;37.79
69785;BMP280;14177;51.520;6.764;2022-08-24T11:26:09;101439.59;;;38.22
69785;BMP280;14177;51.520;6.764;2022-08-24T11:28:52;101434.16;;;38.41
69785;BMP280;14177;51.520;6.764;2022-08-24T11:31:31;101433.94;;;38.49
69785;BMP280;14177;51.520;6.764;2022-08-24T11:34:09;101434.91;;;38.68
69785;BMP280;14177;51.520;6.764;2022-08-24T11:36:40;101431.38;;;38.80
69785;BMP280;14177;51.520;6.764;2022-08-24T11:39:16;101421.69;;;38.91
69785;BMP280;14177;51.520;6.764;2022-08-24T11:45:02;101423.66;;;39.58
69785;BMP280;14177;51.520;6.764;2022-08-24T11:56:39;101414.31;;;39.10
69785;BMP280;14177;51.520;6.764;2022-08-24T12:05:11;101419.91;;;38.65
69785;BMP280;14177;51.520;6.764;2022-08-24T12:08:01;101420.28;;;38.82
69785;BMP280;14177;51.520;6.764;2022-08-24T12:21:19;101403.34;;;38.86
69785;BMP280;14177;51.520;6.764;2022-08-24T12:23:55;101404.44;;;38.66
69785;BMP280;14177;51.520;6.764;2022-08-24T12:26:50;101397.75;;;38.62
69785;BMP280;14177;51.520;6.764;2022-08-24T12:29:34;101393.66;;;38.53
69785;BMP280;14177;51.520;6.764;2022-08-24T12:32:25;101397.13;;;38.79
69785;BMP280;14177;51.520;6.764;2022-08-24T12:35:05;101394.31;;;39.36
69785;BMP280;14177;51.520;6.764;2022-08-24T12:37:44;101400.53;;;39.74
69785;BMP280;14177;51.520;6.764;2022-08-24T12:40:41;101391.03;;;39.58
69785;BMP280;14177;51.520;6.764;2022-08-24T12:46:02;101390.97;;;38.97
69785;BMP280;14177;51.520;6.764;2022-08-24T12:48:45;101390.09;;;39.03
69785;BMP280;14177;51.520;6.764;2022-08-24T13:00:09;101396.75;;;39.07
69785;BMP280;14177;51.520;6.764;2022-08-24T13:02:42;101390.63;;;38.80
69785;BMP280;14177;51.520;6.764;2022-08-24T13:05:18;101394.78;;;38.89
69785;BMP280;14177;51.520;6.764;2022-08-24T13:07:51;101392.19;;;39.01
69785;BMP280;14177;51.520;6.764;2022-08-24T13:18:00;101385.66;;;39.76
69785;BMP280;14177;51.520;6.764;2022-08-24T13:23:23;101389.56;;;39.31
69785;BMP280;14177;51.520;6.764;2022-08-24T13:26:18;101378.72;;;39.49
69785;BMP280;14177;51.520;6.764;2022-08-24T13:28:51;101378.94;;;39.79
69785;BMP280;14177;51.520;6.764;2022-08-24T13:31:35;101376.50;;;39.95
69785;BMP280;14177;51.520;6.764;2022-08-24T13:39:59;101370.28;;;39.88
69785;BMP280;14177;51.520;6.764;2022-08-24T13:45:53;101363.53;;;40.15
69785;BMP280;14177;51.520;6.764;2022-08-24T13:48:57;101359.25;;;40.08
69785;BMP280;14177;51.520;6.764;2022-08-24T14:00:43;101350.47;;;40.95
69785;BMP280;14177;51.520;6.764;2022-08-24T14:05:57;101341.97;;;40.56
69785;BMP280;14177;51.520;6.764;2022-08-24T14:14:06;101353.31;;;39.00
69785;BMP280;14177;51.520;6.764;2022-08-24T14:20:10;101343.81;;;39.22
69785;BMP280;14177;51.520;6.764;2022-08-24T14:25:37;101332.19;;;40.13
69785;BMP280;14177;51.520;6.764;2022-08-24T14:30:44;101331.06;;;40.20
69785;BMP280;14177;51.520;6.764;2022-08-24T14:33:27;101343.22;;;39.75
69785;BMP280;14177;51.520;6.764;2022-08-24T14:36:41;101330.47;;;39.20
69785;BMP280;14177;51.520;6.764;2022-08-24T14:42:46;101330.66;;;38.31
69785;BMP280;14177;51.520;6.764;2022-08-24T14:50:53;101334.91;;;37.69
69785;BMP280;14177;51.520;6.764;2022-08-24T14:56:26;101321.56;;;37.74
69785;BMP280;14177;51.520;6.764;2022-08-24T14:59:36;101321.94;;;38.16
69785;BMP280;14177;51.520;6.764;2022-08-24T15:02:35;101315.09;;;38.64
69785;BMP280;14177;51.520;6.764;2022-08-24T15:05:37;101312.94;;;39.10
69785;BMP280;14177;51.520;6.764;2022-08-24T15:08:11;101312.44;;;39.50
69785;BMP280;14177;51.520;6.764;2022-08-24T15:10:54;101315.44;;;39.42
69785;BMP280;14177;51.520;6.764;2022-08-24T15:13:40;101311.38;;;39.33
69785;BMP280;14177;51.520;6.764;2022-08-24T15:16:17;101303.44;;;38.95
69785;BMP280;14177;51.520;6.764;2022-08-24T15:22:01;101303.25;;;38.96
69785;BMP280;14177;51.520;6.764;2022-08-24T15:24:54;101299.13;;;39.18
69785;BMP280;14177;51.520;6.764;2022-08-24T15:27:55;101299.53;;;39.46
69785;BMP280;14177;51.520;6.764;2022-08-24T15:30:27;101297.34;;;39.61
69785;BMP280;14177;51.520;6.764;2022-08-24T15:33:07;101296.13;;;39.50
69785;BMP280;14177;51.520;6.764;2022-08-24T15:35:45;101296.25;;;39.37
69785;BMP280;14177;51.520;6.764;2022-08-24T15:38:32;101294.66;;;39.30
69785;BMP280;14177;51.520;6.764;2022-08-24T15:41:23;101293.00;;;39.29
69785;BMP280;14177;51.520;6.764;2022-08-24T15:46:47;101287.59;;;38.92
69785;BMP280;14177;51.520;6.764;2022-08-24T15:49:17;101288.56;;;38.66
69785;BMP280;14177;51.520;6.764;2022-08-24T15:51:54;101280.41;;;38.73
69785;BMP280;14177;51.520;6.764;2022-08-24T15:57:00;101289.53;;;38.34
69785;BMP280;14177;51.520;6.764;2022-08-24T15:59:50;101278.94;;;38.20
69785;BMP280;14177;51.520;6.764;2022-08-24T16:02:24;101287.28;;;38.18
69785;BMP280;14177;51.520;6.764;2022-08-24T16:05:09;101296.09;;;38.07
69785;BMP280;14177;51.520;6.764;2022-08-24T16:10:46;101298.38;;;38.10
69785;BMP280;14177;51.520;6.764;2022-08-24T16:13:31;101292.31;;;38.02
69785;BMP280;14177;51.520;6.764;2022-08-24T16:16:04;101282.31;;;37.96
69785;BMP280;14177;51.520;6.764;2022-08-24T16:18:54;101280.28;;;37.85
69785;BMP280;14177;51.520;6.764;2022-08-24T16:21:39;101286.53;;;37.85
69785;BMP280;14177;51.520;6.764;2022-08-24T16:32:28;101290.69;;;37.30
69785;BMP280;14177;51.520;6.764;2022-08-24T16:37:38;101279.22;;;37.21
69785;BMP280;14177;51.520;6.764;2022-08-24T16:40:07;101289.00;;;37.16
69785;BMP280;14177;51.520;6.764;2022-08-24T16:42:36;101283.38;;;37.04
69785;BMP280;14177;51.520;6.764;2022-08-24T16:45:05;101283.50;;;36.90
69785;BMP280;14177;51.520;6.764;2022-08-24T16:47:33;101282.03;;;36.74
69785;BMP280;14177;51.520;6.764;2022-08-24T16:50:01;101280.72;;;36.57
69785;BMP280;14177;51.520;6.764;2022-08-24T16:52:28;101292.94;;;36.47
69785;BMP280;14177;51.520;6.764;2022-08-24T16:54:55;101278.53;;;36.34
69785;BMP280;14177;51.520;6.764;2022-08-24T16:57:26;101282.47;;;36.25
69785;BMP280;14177;51.520;6.764;2022-08-24T16:59:55;101284.28;;;36.18
69785;BMP280;14177;51.520;6.764;2022-08-24T17:02:23;101281.13;;;36.14
69785;BMP280;14177;51.520;6.764;2022-08-24T17:04:53;101276.75;;;36.07
69785;BMP280;14177;51.520;6.764;2022-08-24T17:07:25;101274.81;;;36.01
69785;BMP280;14177;51.520;6.764;2022-08-24T17:09:54;101273.94;;;35.94
69785;BMP280;14177;51.520;6.764;2022-08-24T17:12:23;101289.47;;;35.85
69785;BMP280;14177;51.520;6.764;2022-08-24T17:14:49;101274.81;;;35.67
69785;BMP280;14177;51.520;6.764;2022-08-24T17:17:19;101286.13;;;35.56
69785;BMP280;14177;51.520;6.764;2022-08-24T17:19:49;101276.09;;;35.50
69785;BMP280;14177;51.520;6.764;2022-08-24T17:22:21;101283.56;;;35.48
69785;BMP280;14177;51.520;6.764;2022-08-24T17:24:49;101296.81;;;35.43
69785;BMP280;14177;51.520;6.764;2022-08-24T17:27:19;101292.19;;;35.37
69785;BMP280;14177;51.520;6.764;2022-08-24T17:29:47;101288.41;;;35.31
69785;BMP280;14177;51.520;6.764;2022-08-24T17:32:14;101290.00;;;35.26
69785;BMP280;14177;51.520;6.764;2022-08-24T17:34:42;101294.13;;;35.22
69785;BMP280;14177;51.520;6.764;2022-08-24T17:37:09;101291.56;;;35.14
69785;BMP280;14177;51.520;6.764;2022-08-24T17:39:37;101288.78;;;35.08
69785;BMP280;14177;51.520;6.764;2022-08-24T17:42:04;101296.56;;;34.96
69785;BMP280;14177;51.520;6.764;2022-08-24T17:44:51;101299.50;;;34.80
69785;BMP280;14177;51.520;6.764;2022-08-24T17:47:18;101299.78;;;34.71
69785;BMP280;14177;51.520;6.764;2022-08-24T17:49:46;101306.78;;;34.65
69785;BMP280;14177;51.520;6.764;2022-08-24T17:52:13;101313.13;;;34.58
69785;BMP280;14177;51.520;6.764;2022-08-24T17:54:40;101304.28;;;34.49
69785;BMP280;14177;51.520;6.764;2022-08-24T17:57:11;101308.47;;;34.37
69785;BMP280;14177;51.520;6.764;2022-08-24T17:59:38;101296.59;;;34.32
69785;BMP280;14177;51.520;6.764;2022-08-24T18:02:08;101304.78;;;34.24
69785;BMP280;14177;51.520;6.764;2022-08-24T18:04:38;101306.75;;;34.15
69785;BMP280;14177;51.520;6.764;2022-08-24T18:07:19;101315.06;;;34.06